sensor_id;sensor_type;location;lat;lon;timestamp;pressure;altitude;pressure_sealevel;temperature;humidity
64827;BME280;51265;53.972;12.286;2024-02-14T00:00:13;100945.25;;;2.67;100.00
64827;BME280;51265;53.972;12.286;2024-02-14T00:02:45;100942.53;;;2.67;100.00
64827;BME280;51265;53.972;12.286;2024-02-14T00:05:15;100941.97;;;2.65;100.00
64827;BME280;51265;53.972;12.286;2024-02-14T00:07:41;100942.66;;;2.60;100.00
64827;BME280;51265;53.972;12.286;2024-02-14T00:10:08;100943.97;;;2.58;100.00
64827;BME280;51265;53.972;12.286;2024-02-14T00:12:35;100939.00;;;2.55;100.00
64827;BME280;51265;53.972;12.286;2024-02-14T00:15:03;100942.31;;;2.57;100.00
64827;BME280;51265;53.972;12.286;2024-02-14T00:17:29;100939.34;;;2.58;100.00
64827;BME280;51265;53.972;12.286;2024-02-14T00:19:56;100940.78;;;2.61;100.00
64827;BME280;51265;53.972;12.286;2024-02-14T00:22:23;100953.91;;;2.64;100.00
64827;BME280;51265;53.972;12.286;2024-02-14T00:24:49;100948.13;;;2.60;100.00
64827;BME280;51265;53.972;12.286;2024-02-14T00:27:16;100945.97;;;2.62;100.00
64827;BME280;51265;53.972;12.286;2024-02-14T00:29:43;100945.13;;;2.62;100.00
64827;BME280;51265;53.972;12.286;2024-02-14T00:32:14;100950.47;;;2.68;100.00
64827;BME280;51265;53.972;12.286;2024-02-14T00:34:40;100947.25;;;2.71;100.00
64827;BME280;51265;53.972;12.286;2024-02-14T00:37:06;100948.56;;;2.69;100.00
64827;BME280;51265;53.972;12.286;2024-02-14T00:39:33;100941.22;;;2.69;100.00
64827;BME280;51265;53.972;12.286;2024-02-14T00:41:59;100943.72;;;2.71;100.00
64827;BME280;51265;53.972;12.286;2024-02-14T00:44:25;100940.41;;;2.69;100.00
64827;BME280;51265;53.972;12.286;2024-02-14T00:46:57;100930.47;;;2.63;100.00
64827;BME280;51265;53.972;12.286;2024-02-14T00:49:28;100930.47;;;2.63;100.00
64827;BME280;51265;53.972;12.286;2024-02-14T00:51:54;100926.72;;;2.64;100.00
64827;BME280;51265;53.972;12.286;2024-02-14T00:54:21;100928.00;;;2.61;100.00
64827;BME280;51265;53.972;12.286;2024-02-14T00:56:47;100925.03;;;2.63;100.00
64827;BME280;51265;53.972;12.286;2024-02-14T00:59:13;100926.00;;;2.57;100.00
64827;BME280;51265;53.972;12.286;2024-02-14T01:01:39;100914.78;;;2.53;100.00
64827;BME280;51265;53.972;12.286;2024-02-14T01:04:06;100921.50;;;2.50;100.00
64827;BME280;51265;53.972;12.286;2024-02-14T01:06:33;100919.84;;;2.49;100.00
64827;BME280;51265;53.972;12.286;2024-02-14T01:08:59;100915.50;;;2.48;100.00
64827;BME280;51265;53.972;12.286;2024-02-14T01:11:25;100912.06;;;2.41;100.00
64827;BME280;51265;53.972;12.286;2024-02-14T01:13:51;100913.22;;;2.45;100.00
64827;BME280;51265;53.972;12.286;2024-02-14T01:16:17;100908.97;;;2.38;100.00
64827;BME280;51265;53.972;12.286;2024-02-14T01:18:44;100918.00;;;2.38;100.00
64827;BME280;51265;53.972;12.286;2024-02-14T01:21:10;100908.75;;;2.39;100.00
64827;BME280;51265;53.972;12.286;2024-02-14T01:23:36;100904.63;;;2.37;100.00
64827;BME280;51265;53.972;12.286;2024-02-14T01:26:02;100905.94;;;2.34;100.00
64827;BME280;51265;53.972;12.286;2024-02-14T01:28:28;100910.53;;;2.34;100.00
64827;BME280;51265;53.972;12.286;2024-02-14T01:30:54;100906.16;;;2.33;100.00
64827;BME280;51265;53.972;12.286;2024-02-14T01:33:23;100907.22;;;2.32;100.00
64827;BME280;51265;53.972;12.286;2024-02-14T01:35:49;100906.75;;;2.35;100.00
64827;BME280;51265;53.972;12.286;2024-02-14T01:38:15;100903.22;;;2.34;100.00
64827;BME280;51265;53.972;12.286;2024-02-14T01:40:44;100901.69;;;2.38;100.00
64827;BME280;51265;53.972;12.286;2024-02-14T01:43:11;100904.16;;;2.40;100.00
64827;BME280;51265;53.972;12.286;2024-02-14T01:45:37;100898.56;;;2.46;100.00
64827;BME280;51265;53.972;12.286;2024-02-14T01:48:05;100904.63;;;2.48;100.00
64827;BME280;51265;53.972;12.286;2024-02-14T01:50:33;100896.72;;;2.47;100.00
64827;BME280;51265;53.972;12.286;2024-02-14T01:53:01;100900.25;;;2.47;100.00
64827;BME280;51265;53.972;12.286;2024-02-14T01:55:28;100896.09;;;2.45;100.00
64827;BME280;51265;53.972;12.286;2024-02-14T01:57:55;100892.81;;;2.43;100.00
64827;BME280;51265;53.972;12.286;2024-02-14T02:00:21;100893.38;;;2.45;100.00
64827;BME280;51265;53.972;12.286;2024-02-14T02:02:47;100891.97;;;2.42;100.00
64827;BME280;51265;53.972;12.286;2024-02-14T02:05:19;100887.47;;;2.48;100.00
64827;BME280;51265;53.972;12.286;2024-02-14T02:07:45;100882.63;;;2.50;100.00
64827;BME280;51265;53.972;12.286;2024-02-14T02:10:14;100883.94;;;2.47;100.00
64827;BME280;51265;53.972;12.286;2024-02-14T02:12:41;100888.88;;;2.50;100.00
64827;BME280;51265;53.972;12.286;2024-02-14T02:15:08;100881.78;;;2.49;100.00
64827;BME280;51265;53.972;12.286;2024-02-14T02:17:40;100879.69;;;2.52;100.00
64827;BME280;51265;53.972;12.286;2024-02-14T02:20:06;100888.75;;;2.57;100.00
64827;BME280;51265;53.972;12.286;2024-02-14T02:22:34;100877.53;;;2.54;100.00
64827;BME280;51265;53.972;12.286;2024-02-14T02:25:04;100884.88;;;2.53;100.00
64827;BME280;51265;53.972;12.286;2024-02-14T02:27:34;100881.78;;;2.49;100.00
64827;BME280;51265;53.972;12.286;2024-02-14T02:30:07;100872.00;;;2.48;100.00
64827;BME280;51265;53.972;12.286;2024-02-14T02:32:34;100873.63;;;2.49;100.00
64827;BME280;51265;53.972;12.286;2024-02-14T02:35:00;100877.44;;;2.48;100.00
64827;BME280;51265;53.972;12.286;2024-02-14T02:37:27;100880.50;;;2.52;100.00
64827;BME280;51265;53.972;12.286;2024-02-14T02:39:56;100874.72;;;2.48;100.00
64827;BME280;51265;53.972;12.286;2024-02-14T02:42:22;100870.91;;;2.49;100.00
64827;BME280;51265;53.972;12.286;2024-02-14T02:44:51;100856.75;;;2.47;100.00
64827;BME280;51265;53.972;12.286;2024-02-14T02:47:17;100866.06;;;2.52;100.00
64827;BME280;51265;53.972;12.286;2024-02-14T02:49:44;100855.31;;;2.57;100.00
64827;BME280;51265;53.972;12.286;2024-02-14T02:52:10;100860.13;;;2.66;100.00
64827;BME280;51265;53.972;12.286;2024-02-14T02:54:37;100858.47;;;2.65;100.00
64827;BME280;51265;53.972;12.286;2024-02-14T02:57:10;100850.06;;;2.67;100.00
64827;BME280;51265;53.972;12.286;2024-02-14T02:59:36;100849.59;;;2.70;100.00
64827;BME280;51265;53.972;12.286;2024-02-14T03:02:03;100847.47;;;2.72;100.00
64827;BME280;51265;53.972;12.286;2024-02-14T03:04:29;100848.13;;;2.79;100.00
64827;BME280;51265;53.972;12.286;2024-02-14T03:06:57;100834.63;;;2.84;100.00
64827;BME280;51265;53.972;12.286;2024-02-14T03:09:24;100833.59;;;2.85;100.00
64827;BME280;51265;53.972;12.286;2024-02-14T03:11:52;100834.16;;;2.87;100.00
64827;BME280;51265;53.972;12.286;2024-02-14T03:14:18;100830.34;;;2.88;100.00
64827;BME280;51265;53.972;12.286;2024-02-14T03:16:44;100840.19;;;2.89;100.00
64827;BME280;51265;53.972;12.286;2024-02-14T03:19:10;100830.34;;;2.88;100.00
64827;BME280;51265;53.972;12.286;2024-02-14T03:21:37;100824.91;;;2.88;100.00
64827;BME280;51265;53.972;12.286;2024-02-14T03:24:04;100813.59;;;2.80;100.00
64827;BME280;51265;53.972;12.286;2024-02-14T03:26:35;100819.75;;;2.75;100.00
64827;BME280;51265;53.972;12.286;2024-02-14T03:29:03;100820.59;;;2.75;100.00
64827;BME280;51265;53.972;12.286;2024-02-14T03:31:32;100816.47;;;2.73;100.00
64827;BME280;51265;53.972;12.286;2024-02-14T03:33:58;100810.22;;;2.72;100.00
64827;BME280;51265;53.972;12.286;2024-02-14T03:36:24;100814.66;;;2.79;100.00
64827;BME280;51265;53.972;12.286;2024-02-14T03:38:54;100805.13;;;2.76;100.00
64827;BME280;51265;53.972;12.286;2024-02-14T03:41:20;100803.16;;;2.88;100.00
64827;BME280;51265;53.972;12.286;2024-02-14T03:43:46;100806.81;;;2.94;100.00
64827;BME280;51265;53.972;12.286;2024-02-14T03:46:12;100809.06;;;2.97;100.00
64827;BME280;51265;53.972;12.286;2024-02-14T03:48:39;100798.41;;;2.95;100.00
64827;BME280;51265;53.972;12.286;2024-02-14T03:51:07;100794.13;;;2.99;100.00
64827;BME280;51265;53.972;12.286;2024-02-14T03:53:33;100793.28;;;2.99;100.00
64827;BME280;51265;53.972;12.286;2024-02-14T03:55:59;100786.56;;;3.02;100.00
64827;BME280;51265;53.972;12.286;2024-02-14T03:58:25;100784.88;;;3.00;100.00
64827;BME280;51265;53.972;12.286;2024-02-14T04:00:51;100782.53;;;2.92;100.00
64827;BME280;51265;53.972;12.286;2024-02-14T04:03:18;100786.34;;;2.91;100.00
64827;BME280;51265;53.972;12.286;2024-02-14T04:05:44;100776.28;;;2.92;100.00
64827;BME280;51265;53.972;12.286;2024-02-14T04:08:11;100781.38;;;2.88;100.00
64827;BME280;51265;53.972;12.286;2024-02-14T04:10:37;100779.75;;;2.87;100.00
64827;BME280;51265;53.972;12.286;2024-02-14T04:13:04;100775.28;;;2.81;100.00
64827;BME280;51265;53.972;12.286;2024-02-14T04:15:31;100769.13;;;2.86;100.00
64827;BME280;51265;53.972;12.286;2024-02-14T04:17:57;100769.69;;;2.88;100.00
64827;BME280;51265;53.972;12.286;2024-02-14T04:20:25;100760.91;;;2.97;100.00
64827;BME280;51265;53.972;12.286;2024-02-14T04:22:51;100763.69;;;3.03;100.00
64827;BME280;51265;53.972;12.286;2024-02-14T04:25:18;100757.19;;;3.04;100.00
64827;BME280;51265;53.972;12.286;2024-02-14T04:27:44;100751.75;;;3.04;100.00
64827;BME280;51265;53.972;12.286;2024-02-14T04:30:11;100747.47;;;3.08;100.00
64827;BME280;51265;53.972;12.286;2024-02-14T04:32:37;100738.38;;;3.02;100.00
64827;BME280;51265;53.972;12.286;2024-02-14T04:35:03;100745.13;;;2.99;100.00
64827;BME280;51265;53.972;12.286;2024-02-14T04:37:29;100736.91;;;2.94;100.00
64827;BME280;51265;53.972;12.286;2024-02-14T04:39:55;100732.00;;;2.96;100.00
64827;BME280;51265;53.972;12.286;2024-02-14T04:42:22;100729.81;;;2.93;100.00
64827;BME280;51265;53.972;12.286;2024-02-14T04:44:48;100734.09;;;2.89;100.00
64827;BME280;51265;53.972;12.286;2024-02-14T04:47:14;100742.47;;;2.88;100.00
64827;BME280;51265;53.972;12.286;2024-02-14T04:49:41;100728.31;;;2.86;100.00
64827;BME280;51265;53.972;12.286;2024-02-14T04:52:07;100728.31;;;2.86;100.00
64827;BME280;51265;53.972;12.286;2024-02-14T04:54:33;100717.50;;;2.91;100.00
64827;BME280;51265;53.972;12.286;2024-02-14T04:57:00;100718.94;;;2.93;100.00
64827;BME280;51265;53.972;12.286;2024-02-14T04:59:26;100720.09;;;2.97;100.00
64827;BME280;51265;53.972;12.286;2024-02-14T05:01:52;100711.31;;;2.95;100.00
64827;BME280;51265;53.972;12.286;2024-02-14T05:04:19;100716.53;;;2.97;100.00
64827;BME280;51265;53.972;12.286;2024-02-14T05:06:46;100712.47;;;2.99;100.00
64827;BME280;51265;53.972;12.286;2024-02-14T05:09:12;100717.44;;;3.03;100.00
64827;BME280;51265;53.972;12.286;2024-02-14T05:11:41;100714.81;;;3.08;100.00
64827;BME280;51265;53.972;12.286;2024-02-14T05:14:07;100715.63;;;3.08;100.00
64827;BME280;51265;53.972;12.286;2024-02-14T05:16:33;100719.75;;;3.11;100.00
64827;BME280;51265;53.972;12.286;2024-02-14T05:18:59;100714.97;;;3.18;100.00
64827;BME280;51265;53.972;12.286;2024-02-14T05:21:26;100718.34;;;3.25;100.00
64827;BME280;51265;53.972;12.286;2024-02-14T05:23:53;100711.84;;;3.26;100.00
64827;BME280;51265;53.972;12.286;2024-02-14T05:26:19;100713.50;;;3.27;100.00
64827;BME280;51265;53.972;12.286;2024-02-14T05:28:45;100700.44;;;3.29;100.00
64827;BME280;51265;53.972;12.286;2024-02-14T05:31:12;100712.47;;;3.33;100.00
64827;BME280;51265;53.972;12.286;2024-02-14T05:33:38;100708.19;;;3.37;100.00
64827;BME280;51265;53.972;12.286;2024-02-14T05:36:05;100706.72;;;3.30;100.00
64827;BME280;51265;53.972;12.286;2024-02-14T05:38:31;100703.50;;;3.33;100.00
64827;BME280;51265;53.972;12.286;2024-02-14T05:40:59;100699.81;;;3.22;100.00
64827;BME280;51265;53.972;12.286;2024-02-14T05:43:26;100695.19;;;3.22;100.00
64827;BME280;51265;53.972;12.286;2024-02-14T05:45:52;100701.94;;;3.20;100.00
64827;BME280;51265;53.972;12.286;2024-02-14T05:48:19;100696.75;;;3.18;100.00
64827;BME280;51265;53.972;12.286;2024-02-14T05:50:46;100701.13;;;3.19;100.00
64827;BME280;51265;53.972;12.286;2024-02-14T05:53:13;100698.88;;;3.16;100.00
64827;BME280;51265;53.972;12.286;2024-02-14T05:55:39;100704.59;;;3.15;100.00
64827;BME280;51265;53.972;12.286;2024-02-14T05:58:05;100706.72;;;3.13;100.00
64827;BME280;51265;53.972;12.286;2024-02-14T06:00:31;100696.91;;;3.12;100.00
64827;BME280;51265;53.972;12.286;2024-02-14T06:02:57;100700.13;;;3.09;100.00
64827;BME280;51265;53.972;12.286;2024-02-14T06:05:23;100705.56;;;3.09;100.00
64827;BME280;51265;53.972;12.286;2024-02-14T06:07:49;100715.97;;;3.12;100.00
64827;BME280;51265;53.972;12.286;2024-02-14T06:10:16;100714.31;;;3.11;100.00
64827;BME280;51265;53.972;12.286;2024-02-14T06:12:43;100721.41;;;3.12;100.00
64827;BME280;51265;53.972;12.286;2024-02-14T06:15:10;100723.03;;;3.13;100.00
64827;BME280;51265;53.972;12.286;2024-02-14T06:17:36;100726.84;;;3.12;100.00
64827;BME280;51265;53.972;12.286;2024-02-14T06:20:02;100724.94;;;3.12;100.00
64827;BME280;51265;53.972;12.286;2024-02-14T06:22:33;100730.16;;;3.14;100.00
64827;BME280;51265;53.972;12.286;2024-02-14T06:25:00;100734.75;;;3.13;100.00
64827;BME280;51265;53.972;12.286;2024-02-14T06:27:26;100738.56;;;3.12;100.00
64827;BME280;51265;53.972;12.286;2024-02-14T06:29:53;100732.28;;;3.12;100.00
64827;BME280;51265;53.972;12.286;2024-02-14T06:32:19;100731.94;;;3.08;100.00
64827;BME280;51265;53.972;12.286;2024-02-14T06:34:45;100739.88;;;3.10;100.00
64827;BME280;51265;53.972;12.286;2024-02-14T06:37:11;100741.03;;;3.14;100.00
64827;BME280;51265;53.972;12.286;2024-02-14T06:39:37;100745.50;;;3.20;100.00
64827;BME280;51265;53.972;12.286;2024-02-14T06:42:04;100747.94;;;3.21;100.00
64827;BME280;51265;53.972;12.286;2024-02-14T06:44:30;100752.00;;;3.19;100.00
64827;BME280;51265;53.972;12.286;2024-02-14T06:46:56;100754.25;;;3.22;100.00
64827;BME280;51265;53.972;12.286;2024-02-14T06:49:22;100766.78;;;3.23;100.00
64827;BME280;51265;53.972;12.286;2024-02-14T06:51:48;100756.38;;;3.20;100.00
64827;BME280;51265;53.972;12.286;2024-02-14T06:54:15;100762.16;;;3.23;100.00
64827;BME280;51265;53.972;12.286;2024-02-14T06:56:43;100761.81;;;3.20;100.00
64827;BME280;51265;53.972;12.286;2024-02-14T06:59:09;100754.13;;;3.17;100.00
64827;BME280;51265;53.972;12.286;2024-02-14T07:01:35;100759.03;;;3.15;100.00
64827;BME280;51265;53.972;12.286;2024-02-14T07:04:01;100760.66;;;3.16;100.00
64827;BME280;51265;53.972;12.286;2024-02-14T07:06:27;100762.31;;;3.17;100.00
64827;BME280;51265;53.972;12.286;2024-02-14T07:08:53;100766.69;;;3.18;100.00
64827;BME280;51265;53.972;12.286;2024-02-14T07:11:20;100762.06;;;3.18;100.00
64827;BME280;51265;53.972;12.286;2024-02-14T07:13:46;100768.56;;;3.17;100.00
64827;BME280;51265;53.972;12.286;2024-02-14T07:16:12;100768.34;;;3.19;100.00
64827;BME280;51265;53.972;12.286;2024-02-14T07:18:38;100763.97;;;3.18;100.00
64827;BME280;51265;53.972;12.286;2024-02-14T07:21:04;100769.56;;;3.28;100.00
64827;BME280;51265;53.972;12.286;2024-02-14T07:23:33;100761.34;;;3.23;100.00
64827;BME280;51265;53.972;12.286;2024-02-14T07:26:00;100762.41;;;3.22;100.00
64827;BME280;51265;53.972;12.286;2024-02-14T07:28:27;100765.13;;;3.22;100.00
64827;BME280;51265;53.972;12.286;2024-02-14T07:30:53;100770.41;;;3.29;100.00
64827;BME280;51265;53.972;12.286;2024-02-14T07:33:20;100775.19;;;3.38;100.00
64827;BME280;51265;53.972;12.286;2024-02-14T07:35:46;100774.69;;;3.41;100.00
64827;BME280;51265;53.972;12.286;2024-02-14T07:38:13;100772.56;;;3.43;100.00
64827;BME280;51265;53.972;12.286;2024-02-14T07:40:39;100774.00;;;3.51;100.00
64827;BME280;51265;53.972;12.286;2024-02-14T07:43:05;100776.09;;;3.44;100.00
64827;BME280;51265;53.972;12.286;2024-02-14T07:45:33;100772.22;;;3.57;100.00
64827;BME280;51265;53.972;12.286;2024-02-14T07:47:59;100768.59;;;3.68;100.00
64827;BME280;51265;53.972;12.286;2024-02-14T07:50:25;100770.63;;;3.78;100.00
64827;BME280;51265;53.972;12.286;2024-02-14T07:52:53;100768.72;;;3.78;100.00
64827;BME280;51265;53.972;12.286;2024-02-14T07:55:20;100769.53;;;3.79;100.00
64827;BME280;51265;53.972;12.286;2024-02-14T07:57:46;100771.50;;;3.83;100.00
64827;BME280;51265;53.972;12.286;2024-02-14T08:00:12;100759.63;;;3.89;100.00
64827;BME280;51265;53.972;12.286;2024-02-14T08:02:45;100761.66;;;3.99;100.00
64827;BME280;51265;53.972;12.286;2024-02-14T08:05:11;100756.09;;;4.11;100.00
64827;BME280;51265;53.972;12.286;2024-02-14T08:07:37;100751.16;;;4.08;100.00
64827;BME280;51265;53.972;12.286;2024-02-14T08:10:03;100758.28;;;4.14;100.00
64827;BME280;51265;53.972;12.286;2024-02-14T08:12:30;100755.72;;;4.24;100.00
64827;BME280;51265;53.972;12.286;2024-02-14T08:14:57;100748.75;;;4.33;100.00
64827;BME280;51265;53.972;12.286;2024-02-14T08:17:23;100746.06;;;4.38;100.00
64827;BME280;51265;53.972;12.286;2024-02-14T08:19:49;100743.41;;;4.43;100.00
64827;BME280;51265;53.972;12.286;2024-02-14T08:22:15;100743.09;;;4.40;100.00
64827;BME280;51265;53.972;12.286;2024-02-14T08:24:42;100735.25;;;4.43;100.00
64827;BME280;51265;53.972;12.286;2024-02-14T08:27:08;100739.28;;;4.41;100.00
64827;BME280;51265;53.972;12.286;2024-02-14T08:29:34;100735.16;;;4.38;100.00
64827;BME280;51265;53.972;12.286;2024-02-14T08:32:00;100737.13;;;4.43;100.00
64827;BME280;51265;53.972;12.286;2024-02-14T08:34:27;100734.19;;;4.49;100.00
64827;BME280;51265;53.972;12.286;2024-02-14T08:36:56;100735.75;;;4.40;100.00
64827;BME280;51265;53.972;12.286;2024-02-14T08:39:22;100729.69;;;4.38;100.00
64827;BME280;51265;53.972;12.286;2024-02-14T08:41:49;100716.00;;;4.33;100.00
64827;BME280;51265;53.972;12.286;2024-02-14T08:44:16;100716.72;;;4.23;100.00
64827;BME280;51265;53.972;12.286;2024-02-14T08:46:44;100718.06;;;4.21;100.00
64827;BME280;51265;53.972;12.286;2024-02-14T08:49:14;100704.75;;;4.03;100.00
64827;BME280;51265;53.972;12.286;2024-02-14T08:51:40;100714.63;;;4.09;100.00
64827;BME280;51265;53.972;12.286;2024-02-14T08:54:08;100721.53;;;4.16;100.00
64827;BME280;51265;53.972;12.286;2024-02-14T08:56:36;100705.50;;;4.20;100.00
64827;BME280;51265;53.972;12.286;2024-02-14T08:59:03;100708.78;;;4.22;100.00
64827;BME280;51265;53.972;12.286;2024-02-14T09:01:30;100703.47;;;4.32;100.00
64827;BME280;51265;53.972;12.286;2024-02-14T09:03:56;100706.75;;;4.34;100.00
64827;BME280;51265;53.972;12.286;2024-02-14T09:06:23;100705.09;;;4.33;100.00
64827;BME280;51265;53.972;12.286;2024-02-14T09:08:50;100708.53;;;4.45;100.00
64827;BME280;51265;53.972;12.286;2024-02-14T09:11:22;100708.41;;;4.35;100.00
64827;BME280;51265;53.972;12.286;2024-02-14T09:13:48;100708.34;;;4.52;100.00
64827;BME280;51265;53.972;12.286;2024-02-14T09:16:16;100696.59;;;4.52;100.00
64827;BME280;51265;53.972;12.286;2024-02-14T09:18:45;100689.47;;;4.50;100.00
64827;BME280;51265;53.972;12.286;2024-02-14T09:21:11;100694.94;;;4.50;100.00
64827;BME280;51265;53.972;12.286;2024-02-14T09:23:37;100690.19;;;4.41;100.00
64827;BME280;51265;53.972;12.286;2024-02-14T09:26:06;100698.13;;;4.42;100.00
64827;BME280;51265;53.972;12.286;2024-02-14T09:28:32;100693.78;;;4.46;100.00
64827;BME280;51265;53.972;12.286;2024-02-14T09:31:01;100695.25;;;4.54;100.00
64827;BME280;51265;53.972;12.286;2024-02-14T09:33:27;100681.88;;;4.53;100.00
64827;BME280;51265;53.972;12.286;2024-02-14T09:35:53;100677.44;;;4.46;100.00
64827;BME280;51265;53.972;12.286;2024-02-14T09:38:19;100687.28;;;4.47;100.00
64827;BME280;51265;53.972;12.286;2024-02-14T09:40:45;100685.06;;;4.44;100.00
64827;BME280;51265;53.972;12.286;2024-02-14T09:43:39;100679.59;;;4.44;100.00
64827;BME280;51265;53.972;12.286;2024-02-14T09:46:08;100682.38;;;4.49;100.00
64827;BME280;51265;53.972;12.286;2024-02-14T09:48:36;100685.75;;;4.57;100.00
64827;BME280;51265;53.972;12.286;2024-02-14T09:51:04;100686.91;;;4.66;100.00
64827;BME280;51265;53.972;12.286;2024-02-14T09:53:32;100689.19;;;4.74;100.00
64827;BME280;51265;53.972;12.286;2024-02-14T09:55:59;100698.97;;;4.70;100.00
64827;BME280;51265;53.972;12.286;2024-02-14T09:58:26;100691.31;;;4.72;100.00
64827;BME280;51265;53.972;12.286;2024-02-14T10:00:53;100695.25;;;4.81;100.00
64827;BME280;51265;53.972;12.286;2024-02-14T10:03:19;100691.00;;;4.95;100.00
64827;BME280;51265;53.972;12.286;2024-02-14T10:05:45;100693.47;;;4.97;100.00
64827;BME280;51265;53.972;12.286;2024-02-14T10:08:12;100693.75;;;5.00;100.00
64827;BME280;51265;53.972;12.286;2024-02-14T10:10:38;100694.66;;;5.06;100.00
64827;BME280;51265;53.972;12.286;2024-02-14T10:13:05;100694.38;;;5.08;100.00
64827;BME280;51265;53.972;12.286;2024-02-14T10:15:32;100689.22;;;5.11;100.00
64827;BME280;51265;53.972;12.286;2024-02-14T10:17:58;100687.88;;;5.14;100.00
64827;BME280;51265;53.972;12.286;2024-02-14T10:20:25;100695.00;;;5.15;100.00
64827;BME280;51265;53.972;12.286;2024-02-14T10:23:00;100692.84;;;5.22;100.00
64827;BME280;51265;53.972;12.286;2024-02-14T10:25:26;100693.41;;;5.24;100.00
64827;BME280;51265;53.972;12.286;2024-02-14T10:27:52;100691.72;;;5.18;100.00
64827;BME280;51265;53.972;12.286;2024-02-14T10:30:19;100702.16;;;5.26;100.00
64827;BME280;51265;53.972;12.286;2024-02-14T10:32:45;100698.63;;;5.31;100.00
64827;BME280;51265;53.972;12.286;2024-02-14T10:35:13;100698.91;;;5.29;100.00
64827;BME280;51265;53.972;12.286;2024-02-14T10:37:41;100697.78;;;5.25;100.00
64827;BME280;51265;53.972;12.286;2024-02-14T10:40:08;100690.72;;;5.29;100.00
64827;BME280;51265;53.972;12.286;2024-02-14T10:42:37;100684.78;;;5.37;100.00
64827;BME280;51265;53.972;12.286;2024-02-14T10:45:04;100691.34;;;5.41;100.00
64827;BME280;51265;53.972;12.286;2024-02-14T10:47:36;100689.22;;;5.48;100.00
64827;BME280;51265;53.972;12.286;2024-02-14T10:50:07;100687.06;;;5.56;100.00
64827;BME280;51265;53.972;12.286;2024-02-14T10:52:36;100692.59;;;5.61;100.00
64827;BME280;51265;53.972;12.286;2024-02-14T10:55:04;100694.81;;;5.69;100.00
64827;BME280;51265;53.972;12.286;2024-02-14T10:57:32;100686.63;;;5.69;100.00
64827;BME280;51265;53.972;12.286;2024-02-14T11:00:01;100680.59;;;5.67;100.00
64827;BME280;51265;53.972;12.286;2024-02-14T11:02:28;100677.81;;;5.62;100.00
64827;BME280;51265;53.972;12.286;2024-02-14T11:04:56;100678.94;;;5.66;100.00
64827;BME280;51265;53.972;12.286;2024-02-14T11:07:22;100677.34;;;5.70;100.00
64827;BME280;51265;53.972;12.286;2024-02-14T11:10:04;100672.66;;;5.65;100.00
64827;BME280;51265;53.972;12.286;2024-02-14T11:12:35;100673.28;;;5.78;100.00
64827;BME280;51265;53.972;12.286;2024-02-14T11:15:20;100671.94;;;5.85;100.00
64827;BME280;51265;53.972;12.286;2024-02-14T11:17:48;100669.22;;;5.90;100.00
64827;BME280;51265;53.972;12.286;2024-02-14T11:20:30;100672.31;;;6.04;100.00
64827;BME280;51265;53.972;12.286;2024-02-14T11:23:00;100663.31;;;6.14;100.00
64827;BME280;51265;53.972;12.286;2024-02-14T11:25:30;100669.38;;;6.21;100.00
64827;BME280;51265;53.972;12.286;2024-02-14T11:28:00;100667.50;;;6.32;100.00
64827;BME280;51265;53.972;12.286;2024-02-14T11:30:33;100665.59;;;6.32;100.00
64827;BME280;51265;53.972;12.286;2024-02-14T11:33:13;100661.19;;;6.26;100.00
64827;BME280;51265;53.972;12.286;2024-02-14T11:35:41;100654.31;;;6.18;100.00
64827;BME280;51265;53.972;12.286;2024-02-14T11:38:09;100654.59;;;6.12;100.00
64827;BME280;51265;53.972;12.286;2024-02-14T11:40:38;100652.38;;;6.14;100.00
64827;BME280;51265;53.972;12.286;2024-02-14T11:43:13;100645.84;;;6.15;100.00
64827;BME280;51265;53.972;12.286;2024-02-14T11:45:43;100645.31;;;6.23;100.00
64827;BME280;51265;53.972;12.286;2024-02-14T11:48:12;100653.53;;;6.28;100.00
64827;BME280;51265;53.972;12.286;2024-02-14T11:50:42;100653.25;;;6.35;100.00
64827;BME280;51265;53.972;12.286;2024-02-14T11:53:13;100648.31;;;6.27;100.00
64827;BME280;51265;53.972;12.286;2024-02-14T11:55:40;100649.41;;;6.26;100.00
64827;BME280;51265;53.972;12.286;2024-02-14T11:58:10;100650.22;;;6.26;100.00
64827;BME280;51265;53.972;12.286;2024-02-14T12:00:38;100642.59;;;6.28;100.00
64827;BME280;51265;53.972;12.286;2024-02-14T12:03:26;100642.59;;;6.28;100.00
64827;BME280;51265;53.972;12.286;2024-02-14T12:05:54;100645.06;;;6.35;100.00
64827;BME280;51265;53.972;12.286;2024-02-14T12:08:21;100650.28;;;6.31;100.00
64827;BME280;51265;53.972;12.286;2024-02-14T12:10:47;100644.53;;;6.33;100.00
64827;BME280;51265;53.972;12.286;2024-02-14T12:13:17;100646.44;;;6.37;100.00
64827;BME280;51265;53.972;12.286;2024-02-14T12:15:48;100650.28;;;6.46;100.00
64827;BME280;51265;53.972;12.286;2024-02-14T12:18:16;100649.22;;;6.63;100.00
64827;BME280;51265;53.972;12.286;2024-02-14T12:20:42;100653.63;;;6.79;100.00
64827;BME280;51265;53.972;12.286;2024-02-14T12:23:17;100653.34;;;6.86;100.00
64827;BME280;51265;53.972;12.286;2024-02-14T12:25:44;100656.09;;;6.86;100.00
64827;BME280;51265;53.972;12.286;2024-02-14T12:28:16;100643.50;;;6.90;100.00
64827;BME280;51265;53.972;12.286;2024-02-14T12:30:47;100645.41;;;6.84;100.00
64827;BME280;51265;53.972;12.286;2024-02-14T12:33:22;100642.41;;;6.86;100.00
64827;BME280;51265;53.972;12.286;2024-02-14T12:35:53;100642.13;;;6.82;100.00
64827;BME280;51265;53.972;12.286;2024-02-14T12:38:21;100644.84;;;6.77;100.00
64827;BME280;51265;53.972;12.286;2024-02-14T12:40:49;100626.78;;;6.76;100.00